Tiempo atmosférico en la estación meteorológica de Puerto El Pico, Ávila (1285 m.)



Fecha
DESCASC
Temp. máxima en grados centígrados (hora)
DESCASC
Temp. mínima en grados centígrados (hora)
DESCASC
Temp. media en grados centígrados
DESCASC
Racha de viento máxima en m/sg (hora)
DESCASC
Velocidad máxima media en intervalos de 10 minutos(hora)
DESCASC
Precipitaciones diarias en mm
DESCASC
Precipitaciones de 00:00 a 06:00 en mm
DESCASC
Precipitaciones de 06:00 a 12:00 en mm
DESCASC
Precipitaciones de 12:00 a 18:00 en mm
DESCASC
Precipitaciones de 18:00 a 24:00 en mm
DESCASC
19-05-2019 15.8 (17:30) -2.4 (07:00) 6.7 8.89 (17:50) 5 (13:50) 0 0 0 0 0
18-05-2019 13.7 (16:00) 1.7 (07:20) 7.7 11.39 (08:30) 7.22 (08:30) 0 0 0 0 0
17-05-2019 11.8 (15:20) 3.7 (07:10) 7.8 14.72 (03:20) 7.78 (15:30) 0 0 0 0 0
16-05-2019 22.2 (16:30) 4.8 (00:00) 13.5 11.67 (23:20) 6.67 (23:59) 0.6 0 0 0 0.6
15-05-2019 26.5 (16:00) 1.8 (00:00) 14.1 8.33 (18:30) 4.72 (14:00) 0 0 0 0 0
14-05-2019 25.6 (18:20) -0.8 (-00:0) 12.4 9.72 (13:20) 5.83 (13:40) 0 0 0 0 0
13-05-2019 25.1 (15:40) -1.2 (-00:0) 12 10.56 (12:40) 6.94 (16:10) 0 0 0 0 0
12-05-2019 23.3 (18:00) -1.9 (-00:0) 10.7 7.5 (18:50) 5 (18:50) 0 0 0 0 0
11-05-2019 21.4 (16:00) 1.5 (00:00) 11.4 8.61 (17:00) 5.83 (18:50) 0 0 0 0 0
10-05-2019 18.6 (19:50) 6.3 (00:00) 12.5 10 (17:30) 6.39 (17:30) 0.8 0.2 0.6 0 0
09-05-2019 14.1 (15:10) -0.8 (-00:0) 6.7 12.5 (18:20) 6.94 (15:00) 0.4 0 0 0 0.4
08-05-2019 13.3 (19:10) 4.1 (00:00) 8.7 12.78 (09:00) 6.94 (09:00) 5.8 2.6 3 0.2 0
07-05-2019 16.2 (16:10) 0.5 (00:00) 8.4 11.11 (15:00) 6.39 (16:30) 0 0 0 0 0
06-05-2019 18 (16:50) -0.2 (00:00) 8.9 11.94 (15:10) 6.39 (15:10) 0 0 0 0 0
05-05-2019 18.7 (17:50) -0.4 (00:00) 9.2 11.39 (16:20) 6.67 (15:40) 0 0 0 0 0
04-05-2019 18.4 (17:30) -3.6 (-00:0) 7.4 9.17 (19:20) 5.83 (19:20) 0 0 0 0 0
03-05-2019 15 (16:40) -0.6 (-00:0) 7.2 12.5 (18:10) 8.33 (18:20) 0 0 0 0 0
02-05-2019 20.4 (17:30) 1.2 (06:20) 10.8 7.22 (18:30) 4.44 (18:40) 0 0 0 0 0
01-05-2019 19.4 (12:40) 2.2 (00:00) 10.8 17.5 (14:30) 4.72 (14:10) 2.6 0 0 0.4 2.2
30-04-2019 20.7 (14:50) 1 (00:00) 10.9 8.89 (13:50) 4.72 (14:10) 0 0 0 0 0
29-04-2019 20.1 (16:00) 1 (00:00) 10.6 9.44 (17:00) 5.28 (14:10) 0 0 0 0 0
28-04-2019 19.6 (17:00) -1.2 (-00:0) 9.2 8.06 (16:30) 4.72 (18:00) 0 0 0 0 0
27-04-2019 16.3 (18:30) -2.9 (-00:0) 6.7 8.89 (16:40) 5.28 (16:10) 0 0 0 0 0
26-04-2019 12.8 (16:30) 0.6 (00:00) 6.7 8.89 (07:50) 4.72 (04:10) 0 0 0 0 0
25-04-2019 7.2 (19:40) 1.2 (00:00) 4.2 15 (00:10) 6.94 (00:10) 7.2 2 2.8 2.4 0
24-04-2019 6.9 (19:00) -0.9 (-00:0) 3 17.22 (17:30) 8.61 (08:10) 71.4 3.2 23.8 18 26.4
23-04-2019 8 (00:00) 0.5 (00:00) 4.3 14.72 (02:10) 6.39 (14:20) 12.2 4 5 1.4 1.8

Gráficas

Temp. máximas Temp. mínimas Temp. medias Precipitaciones Rachas de viento máximas Velocidades máximas media en intervalos de 10 minutos

Datos horarios

Fecha y hora oficial Temperatura (ºC) Velocidad del viento (km/h) Dirección del viento Racha (km/h) Dirección de racha Precipitación (mm) Presión (hPa) Tendencia (hPa) Humedad (%)
2019-05-22 23:00:00 9.5 3 Sur 9 Sur 0 -- -- 72
2019-05-22 22:00:00 13.9 8 Sur 16 Sur 0 -- -- 60
2019-05-22 21:00:00 17.8 5 Sur 22 Sur 0 -- -- 48
2019-05-22 20:00:00 18.1 11 Sur 22 Sur 0 -- -- 46
2019-05-22 19:00:00 18.6 11 Sur 23 Sudoeste 0 -- -- 45
2019-05-22 18:00:00 19.8 15 Sur 30 Sur 0 -- -- 42
2019-05-22 17:00:00 19.9 15 Sur 28 Sur 0 -- -- 41
2019-05-22 16:00:00 21.1 16 Sur 28 Sur 0 -- -- 39
2019-05-22 15:00:00 20.3 17 Sur 32 Sur 0 -- -- 39
2019-05-22 14:00:00 19.4 17 Sur 29 Sudoeste 0 -- -- 40
2019-05-22 13:00:00 18.8 17 Sudoeste 27 Sur 0 -- -- 38
2019-05-22 12:00:00 18.2 15 Sur 23 Sur 0 -- -- 40
2019-05-22 11:00:00 18.6 9 Sur 14 Sudoeste 0 -- -- 41
2019-05-22 10:00:00 15.5 0 Calma 4 Norte 0 -- -- 51
2019-05-22 09:00:00 9.9 0 Calma 3 Sudeste 0 -- -- 64
2019-05-22 08:00:00 0.6 2 Sur 4 Sudeste 0 -- -- 99
2019-05-22 07:00:00 0.2 2 Sur 4 Sur 0 -- -- 99
2019-05-22 06:00:00 0.6 3 Sur 5 Sudoeste 0 -- -- 96
2019-05-22 05:00:00 0.9 0 Calma 4 Sur 0 -- -- 96
2019-05-22 04:00:00 1.8 3 Sur 4 Sur 0 -- -- 92
2019-05-22 03:00:00 2.4 4 Sur 7 Sudoeste 0 -- -- 91
2019-05-22 02:00:00 2.9 0 Calma 5 Sur 0 -- -- 89
2019-05-22 01:00:00 4.4 3 Sur 6 Sudeste 0 -- -- 83
2019-05-22 00:00:00 5.3 5 Sudeste 8 Sudeste 0 -- -- 80
2019-05-21 23:00:00 6.8 4 Sur 8 Sur 0 -- -- 80
2019-05-21 22:00:00 9.1 5 Sur 10 Sudoeste 0 -- -- 75
2019-05-21 21:00:00 13.6 6 Sur 10 Sudoeste 0 -- -- 63
2019-05-21 20:00:00 16.5 5 Sudoeste 12 Sudoeste 0 -- -- 52
2019-05-21 19:00:00 17.6 4 Sudoeste 15 Sur 0 -- -- 41
2019-05-21 18:00:00 17.1 8 Sudoeste 15 Sur 0 -- -- 44
2019-05-21 17:00:00 17.3 7 Sur 19 Sudoeste 0 -- -- 44
2019-05-21 16:00:00 18.4 10 Sur 23 Sudoeste 0 -- -- 43
2019-05-21 15:00:00 17.9 10 Sudoeste 26 Sur 0 -- -- 42
2019-05-21 14:00:00 17.9 10 Sudoeste 23 Sur 0 -- -- 42
2019-05-21 13:00:00 16.4 13 Sur 23 Oeste 0 -- -- 44
2019-05-21 12:00:00 15.9 12 Sudoeste 22 Sur 0 -- -- 46
2019-05-21 11:00:00 15.2 9 Sur 13 Sur 0 -- -- 46
2019-05-21 10:00:00 13 3 Norte 9 Norte 0 -- -- 50
2019-05-21 09:00:00 10.7 2 Nordeste 4 Nordeste 0 -- -- 61
2019-05-21 08:00:00 4.3 0 Calma 3 Sudoeste 0 -- -- 85
2019-05-21 07:00:00 3 0 Calma 4 Sudeste 0 -- -- 86
2019-05-21 06:00:00 3.6 3 Sur 7 Sur 0 -- -- 82
2019-05-21 05:00:00 6.1 3 Sur 5 Sudeste 0 -- -- 76
2019-05-21 04:00:00 7.6 0 Calma 8 Sudeste 0 -- -- 71
2019-05-21 03:00:00 8 3 Este 7 Sudeste 0 -- -- 68
2019-05-21 02:00:00 8.1 0 Calma 5 Sudeste 0 -- -- 69
2019-05-21 01:00:00 8.5 0 Calma 8 Sudeste 0 -- -- 67
2019-05-21 00:00:00 8.9 3 Sur 7 Sudeste 0 -- -- 67
2019-05-20 23:00:00 9.4 4 Sur 10 Sudeste 0 -- -- 66
2019-05-20 22:00:00 10.5 2 Sur 14 Norte 0 -- -- 58
2019-05-20 21:00:00 13.3 3 Noroeste 10 Norte 0 -- -- 48
2019-05-20 20:00:00 14.3 8 Oeste 21 Sur 0 -- -- 44
2019-05-20 19:00:00 13.6 13 Sur 33 Sudoeste 0 -- -- 49
2019-05-20 18:00:00 14.7 14 Sur 25 Sudoeste 0 -- -- 45
2019-05-20 17:00:00 15.6 14 Sudoeste 26 Sur 0 -- -- 43
2019-05-20 16:00:00 14.2 14 Sur 26 Sur 0 -- -- 46
2019-05-20 15:00:00 14.4 13 Sur 28 Sur 0 -- -- 46
2019-05-20 14:00:00 14.2 13 Sur 31 Sur 0 -- -- 46
2019-05-20 13:00:00 14.6 15 Sur 26 Sudoeste 0 -- -- 42
2019-05-20 12:00:00 12.9 15 Sur 23 Sur 0 -- -- 47
2019-05-20 11:00:00 13 12 Sur 19 Sur 0 -- -- 44
2019-05-20 10:00:00 9.7 3 Nordeste 5 Nordeste 0 -- -- 42
2019-05-20 09:00:00 3.4 0 Calma 4 Sudeste 0 -- -- 66
2019-05-20 08:00:00 -2.8 0 Calma 4 Oeste 0 -- -- 87
2019-05-20 07:00:00 -4.2 0 Calma 6 Sur 0 -- -- 89
2019-05-20 06:00:00 -4 0 Calma 8 Sur 0 -- -- 86
2019-05-20 05:00:00 -4.2 0 Calma 4 Sudoeste 0 -- -- 86
2019-05-20 04:00:00 -3.2 3 Sur 5 Sur 0 -- -- 84
2019-05-20 03:00:00 -2.5 3 Sur 6 Sur 0 -- -- 81
2019-05-20 02:00:00 -1.5 3 Sur 5 Sur 0 -- -- 76
2019-05-20 01:00:00 0.1 0 Calma 8 Sur 0 -- -- 69
2019-05-20 00:00:00 2.3 3 Sur 9 Sur 0 -- -- 64
2019-05-19 23:00:00 2.6 4 Sur 9 Sur 0 -- -- 66
2019-05-19 22:00:00 6.8 7 Sur 14 Sur 0 -- -- 50
2019-05-19 21:00:00 10 4 Sur 13 Noroeste 0 -- -- 45
2019-05-19 20:00:00 14.8 6 Norte 21 Norte 0 -- -- 31
2019-05-19 19:00:00 15 11 Norte 29 Norte 0 -- -- 34
2019-05-19 18:00:00 14.4 11 Norte 32 Nordeste 0 -- -- 34
2019-05-19 17:00:00 14.6 15 Sur 27 Sudoeste 0 -- -- 43
2019-05-19 16:00:00 13.7 14 Sudoeste 24 Sudoeste 0 -- -- 44
2019-05-19 15:00:00 11.6 14 Sur 28 Sur 0 -- -- 49
2019-05-19 14:00:00 12.1 14 Sur 29 Sur 0 -- -- 49
2019-05-19 13:00:00 12.3 13 Sudoeste 26 Sudoeste 0 -- -- 43
2019-05-19 12:00:00 11.4 14 Sur 26 Sur 0 -- -- 49
2019-05-19 11:00:00 10.3 7 Nordeste 14 Norte 0 -- -- 42
2019-05-19 10:00:00 8.7 5 Este 13 Nordeste 0 -- -- 56
2019-05-19 09:00:00 6.3 0 Calma 4 Nordeste 0 -- -- 72
2019-05-19 08:00:00 -2.2 0 Calma 6 Sudeste 0 -- -- 97
2019-05-19 07:00:00 -2.4 0 Calma 9 Sudeste 0 -- -- 94
2019-05-19 06:00:00 -2.2 2 Sur 6 Sudeste 0 -- -- 94
2019-05-19 05:00:00 -0.9 2 Sudeste 6 Sur 0 -- -- 91
2019-05-19 04:00:00 -0.3 0 Calma 5 Noroeste 0 -- -- 86
2019-05-19 03:00:00 -0.2 3 Nordeste 7 Nordeste 0 -- -- 87
2019-05-19 02:00:00 -0.1 2 Sudeste 9 Sudeste 0 -- -- 84
2019-05-19 01:00:00 1 9 Sudeste 13 Sudeste 0 -- -- 81
2019-05-19 00:00:00 2.2 3 Sudeste 12 Sudeste 0 -- -- 75
2019-05-18 23:00:00 2.9 8 Sudeste 11 Sudeste 0 -- -- 72
2019-05-18 22:00:00 3.5 6 Sur 14 Norte 0 -- -- 71
2019-05-18 21:00:00 8 10 Norte 20 Norte 0 -- -- 50
2019-05-18 20:00:00 10.5 10 Norte 32 Nordeste 0 -- -- 45
2019-05-18 19:00:00 10.8 13 Norte 28 Norte 0 -- -- 44
2019-05-18 18:00:00 10.3 20 Norte 32 Nordeste 0 -- -- 47
2019-05-18 17:00:00 10.8 12 Norte 28 Norte 0 -- -- 42
2019-05-18 16:00:00 13.7 14 Norte 33 Norte 0 -- -- 40
2019-05-18 15:00:00 9.7 14 Norte 29 Norte 0 -- -- 48
2019-05-18 14:00:00 9.2 9 Nordeste 27 Norte 0 -- -- 49
2019-05-18 13:00:00 8.8 10 Norte 22 Norte 0 -- -- 49
2019-05-18 12:00:00 8.4 12 Norte 28 Nordeste 0 -- -- 51
2019-05-18 11:00:00 8.3 10 Noroeste 36 Norte 0 -- -- 50
2019-05-18 10:00:00 6.2 14 Norte 30 Norte 0 -- -- 57
2019-05-18 09:00:00 4.5 22 Norte 41 Norte 0 -- -- 62
2019-05-18 08:00:00 2 19 Norte 30 Norte 0 -- -- 70
2019-05-18 07:00:00 2.2 12 Nordeste 30 Norte 0 -- -- 77
2019-05-18 06:00:00 2.9 15 Norte 26 Norte 0 -- -- 78
2019-05-18 05:00:00 3.5 14 Norte 24 Norte 0 -- -- 75
2019-05-18 04:00:00 3.8 14 Norte 22 Norte 0 -- -- 77
2019-05-18 03:00:00 4.4 7 Norte 22 Noroeste 0 -- -- 71
2019-05-18 02:00:00 4.9 15 Norte 24 Norte 0 -- -- 72
2019-05-18 01:00:00 5.5 12 Norte 22 Norte 0 -- -- 73
2019-05-18 00:00:00 6.1 10 Norte 20 Norte 0 -- -- 73
2019-05-17 23:00:00 6.3 9 Norte 21 Noroeste 0 -- -- 69
2019-05-17 22:00:00 6.3 3 Norte 14 Norte 0 -- -- 63
2019-05-17 21:00:00 8.6 11 Nordeste 27 Norte 0 -- -- 52
2019-05-17 20:00:00 10.1 9 Norte 37 Norte 0 -- -- 44
2019-05-17 19:00:00 11.8 11 Norte 29 Norte 0 -- -- 46
2019-05-17 18:00:00 10.8 18 Norte 39 Norte 0 -- -- 47
2019-05-17 17:00:00 11.4 20 Norte 40 Norte 0 -- -- 53
2019-05-17 16:00:00 10.5 16 Norte 44 Norte 0 -- -- 56
2019-05-17 15:00:00 9.7 23 Norte 42 Norte 0 -- -- 56
2019-05-17 14:00:00 9.8 23 Norte 40 Norte 0 -- -- 61
2019-05-17 13:00:00 9.8 19 Norte 37 Norte 0 -- -- 61
2019-05-17 12:00:00 8.7 16 Norte 37 Norte 0 -- -- 65
2019-05-17 11:00:00 6.1 13 Norte 38 Norte 0 -- -- 74
2019-05-17 10:00:00 4.8 21 Norte 41 Norte 0 -- -- 80
2019-05-17 09:00:00 4.1 22 Norte 47 Noroeste 0 -- -- 82
2019-05-17 08:00:00 3.9 21 Norte 35 Norte 0 -- -- 85
2019-05-17 07:00:00 3.8 18 Norte 44 Norte 0 -- -- 85
2019-05-17 06:00:00 4.2 18 Norte 35 Norte 0 -- -- 81
2019-05-17 05:00:00 4.4 15 Norte 39 Norte 0 -- -- 77
2019-05-17 04:00:00 4.7 21 Norte 53 Norte 0 -- -- 79
2019-05-17 03:00:00 4.8 22 Norte 41 Norte 0 -- -- 80
2019-05-17 02:00:00 5.4 18 Norte 32 Norte 0 -- -- 79
2019-05-17 01:00:00 6.1 13 Norte 34 Norte 0 -- -- 81
2019-05-17 00:00:00 6.4 24 Norte 42 Norte 0 -- -- 84
2019-05-16 23:00:00 6.6 15 Norte 39 Norte 0.6 -- -- 89
2019-05-16 22:00:00 10.5 15 Noroeste 36 Norte 0 -- -- 74
2019-05-16 21:00:00 13.4 15 Norte 34 Norte 0 -- -- 55
2019-05-16 20:00:00 15.4 15 Norte 32 Noroeste 0 -- -- 48
2019-05-16 19:00:00 17.7 15 Noroeste 30 Sudoeste 0 -- -- 47
2019-05-16 18:00:00 21.6 20 Sur 40 Sur 0 -- -- 31
2019-05-16 17:00:00 19.6 21 Sur 40 Sur 0 -- -- 43
2019-05-16 16:00:00 22 18 Sur 38 Sur 0 -- -- 36
2019-05-16 15:00:00 21.2 22 Sur 39 Sur 0 -- -- 35
2019-05-16 14:00:00 20.9 21 Sur 38 Sudoeste 0 -- -- 37
2019-05-16 13:00:00 20.3 18 Sur 33 Sudoeste 0 -- -- 42
2019-05-16 12:00:00 20 18 Sur 33 Sudoeste 0 -- -- 41
2019-05-16 11:00:00 20 13 Sur 23 Sur 0 -- -- 45
2019-05-16 10:00:00 19.4 4 Norte 12 Sur 0 -- -- 41
2019-05-16 09:00:00 14.7 0 Calma 4 Nordeste 0 -- -- 57
2019-05-16 08:00:00 5.1 3 Sur 7 Sur 0 -- -- 87
2019-05-16 07:00:00 4.8 0 Calma 5 Sudoeste 0 -- -- 89
2019-05-16 06:00:00 7 3 Sur 5 Sudoeste 0 -- -- 86
2019-05-16 05:00:00 8.1 3 Sur 6 Sudoeste 0 -- -- 82
2019-05-16 04:00:00 8.6 3 Sur 5 Sudoeste 0 -- -- 79
2019-05-16 03:00:00 7.7 2 Sur 4 Sur 0 -- -- 78
2019-05-16 02:00:00 8.4 0 Calma 5 Sudeste 0 -- -- 76
2019-05-16 01:00:00 9.7 3 Sur 4 Sudeste 0 -- -- 72
2019-05-16 00:00:00 11.5 0 Calma 9 Sudeste 0 -- -- 66
2019-05-15 23:00:00 13 3 Sur 9 Sudeste 0 -- -- 57
2019-05-15 22:00:00 14.7 4 Sur 9 Sur 0 -- -- 52
2019-05-15 21:00:00 20.4 6 Sur 12 Norte 0 -- -- 39
2019-05-15 20:00:00 23.7 9 Norte 16 Oeste 0 -- -- 29
2019-05-15 19:00:00 25.5 11 Norte 30 Norte 0 -- -- 27
2019-05-15 18:00:00 25.6 13 Norte 23 Noroeste 0 -- -- 27
2019-05-15 17:00:00 25.3 9 Norte 27 Sur 0 -- -- 28
2019-05-15 16:00:00 26.5 7 Sudoeste 27 Sudoeste 0 -- -- 29
2019-05-15 15:00:00 24.7 14 Sur 28 Sur 0 -- -- 30
2019-05-15 14:00:00 24.4 17 Sudoeste 26 Sur 0 -- -- 31
2019-05-15 13:00:00 24.6 9 Nordeste 24 Nordeste 0 -- -- 25
2019-05-15 12:00:00 24.1 14 Norte 26 Norte 0 -- -- 28
2019-05-15 11:00:00 22.9 8 Norte 14 Norte 0 -- -- 32
2019-05-15 10:00:00 16.5 4 Nordeste 7 Norte 0 -- -- 43
2019-05-15 09:00:00 12.7 0 Calma 3 Sudeste 0 -- -- 54
2019-05-15 08:00:00 3.3 0 Calma 4 Sudeste 0 -- -- 79
2019-05-15 07:00:00 2 3 Sur 5 Sudeste 0 -- -- 80
2019-05-15 06:00:00 3.4 0 Calma 7 Sudeste 0 -- -- 74
2019-05-15 05:00:00 2.8 2 Sur 6 Sudoeste 0 -- -- 79
2019-05-15 04:00:00 3.2 0 Calma 5 Sudoeste 0 -- -- 76
2019-05-15 03:00:00 4.5 0 Calma 4 Sudoeste 0 -- -- 72
2019-05-15 02:00:00 6.5 3 Sur 8 Sudoeste 0 -- -- 62
2019-05-15 01:00:00 6.6 2 Sur 7 Nordeste 0 -- -- 66
2019-05-15 00:00:00 10.1 0 Calma 15 Nordeste 0 -- -- 56
2019-05-14 23:00:00 11.7 7 Norte 12 Norte 0 -- -- 50
2019-05-14 22:00:00 15.3 5 Nordeste 10 Nordeste 0 -- -- 39
2019-05-14 21:00:00 19.1 5 Norte 22 Norte 0 -- -- 31
2019-05-14 20:00:00 23.1 12 Norte 27 Norte 0 -- -- 23
2019-05-14 19:00:00 24.4 13 Norte 27 Norte 0 -- -- 24
2019-05-14 18:00:00 24.4 9 Sudoeste 30 Sur 0 -- -- 29
2019-05-14 17:00:00 22.7 17 Sur 34 Sur 0 -- -- 38
2019-05-14 16:00:00 22.2 18 Sur 30 Sudoeste 0 -- -- 38
2019-05-14 15:00:00 21.1 20 Sur 32 Sur 0 -- -- 40
2019-05-14 14:00:00 20 20 Sur 35 Sur 0 -- -- 40
2019-05-14 13:00:00 19.7 17 Sur 31 Sur 0 -- -- 41
2019-05-14 12:00:00 19.4 14 Sur 23 Sur 0 -- -- 43
2019-05-14 11:00:00 18.4 3 Nordeste 8 Norte 0 -- -- 38
2019-05-14 10:00:00 15.1 2 Nordeste 5 Norte 0 -- -- 39
2019-05-14 09:00:00 10.6 0 Calma 5 Nordeste 0 -- -- 57
2019-05-14 08:00:00 0.2 2 Sur 4 Sudoeste 0 -- -- 90
2019-05-14 07:00:00 -0.3 2 Sur 4 Sur 0 -- -- 89
2019-05-14 06:00:00 0.7 3 Sur 6 Sudoeste 0 -- -- 86
2019-05-14 05:00:00 1.4 2 Sur 5 Sudeste 0 -- -- 80
2019-05-14 04:00:00 2 0 Calma 5 Sur 0 -- -- 77
2019-05-14 03:00:00 3.4 0 Calma 5 Sudoeste 0 -- -- 74
2019-05-14 02:00:00 4.4 0 Calma 4 Sur 0 -- -- 67
2019-05-14 01:00:00 6.1 0 Calma 8 Sudeste 0 -- -- 60
2019-05-14 00:00:00 8.8 5 Sur 14 Sudeste 0 -- -- 52
2019-05-13 23:00:00 10.4 7 Sur 14 Sudeste 0 -- -- 49
2019-05-13 22:00:00 12.4 5 Sudeste 8 Sudeste 0 -- -- 46
2019-05-13 21:00:00 18 5 Noroeste 22 Norte 0 -- -- 31
2019-05-13 20:00:00 22 13 Norte 28 Norte 0 -- -- 26
2019-05-13 19:00:00 22.9 21 Norte 33 Norte 0 -- -- 25
2019-05-13 18:00:00 24 22 Norte 33 Norte 0 -- -- 24
2019-05-13 17:00:00 24.6 20 Norte 36 Norte 0 -- -- 20
2019-05-13 16:00:00 25 22 Norte 32 Norte 0 -- -- 28
2019-05-13 15:00:00 24.6 19 Norte 34 Norte 0 -- -- 25
2019-05-13 14:00:00 23.9 23 Norte 36 Norte 0 -- -- 24
2019-05-13 13:00:00 23.2 17 Norte 38 Norte 0 -- -- 20
2019-05-13 12:00:00 22.5 11 Nordeste 21 Norte 0 -- -- 20
2019-05-13 11:00:00 21.5 10 Nordeste 19 Norte 0 -- -- 24
2019-05-13 10:00:00 17.4 0 Calma 4 Norte 0 -- -- 36
2019-05-13 09:00:00 11.5 0 Calma 4 Este 0 -- -- 40
2019-05-13 08:00:00 0.1 0 Calma 6 Sudeste 0 -- -- 70
2019-05-13 07:00:00 -0.9 0 Calma 5 Sudoeste 0 -- -- 73
2019-05-13 06:00:00 -0.5 0 Calma 6 Este 0 -- -- 71
2019-05-13 05:00:00 0.4 0 Calma 5 Sur 0 -- -- 70
2019-05-13 04:00:00 0.4 0 Calma 4 Sur 0 -- -- 70
2019-05-13 03:00:00 1.4 2 Sur 4 Sur 0 -- -- 67
2019-05-13 02:00:00 2.8 0 Calma 5 Sur 0 -- -- 65
2019-05-13 01:00:00 4.2 3 Sur 7 Sur 0 -- -- 55
2019-05-13 00:00:00 5.7 4 Sur 7 Sudeste 0 -- -- 50
2019-05-12 23:00:00 7.9 4 Sur 12 Sudeste 0 -- -- 43
2019-05-12 22:00:00 10.3 3 Sur 8 Sudeste 0 -- -- 39
2019-05-12 21:00:00 16.6 8 Norte 23 Norte 0 -- -- 25
2019-05-12 20:00:00 20.7 16 Norte 26 Norte 0 -- -- 21
2019-05-12 19:00:00 22.4 13 Nordeste 27 Norte 0 -- -- 19
2019-05-12 18:00:00 23.3 9 Sur 26 Sur 0 -- -- 27
2019-05-12 17:00:00 21.5 14 Sudoeste 26 Sur 0 -- -- 28
2019-05-12 16:00:00 21.8 13 Sur 23 Sudoeste 0 -- -- 31
2019-05-12 15:00:00 20.6 15 Sur 24 Oeste 0 -- -- 30
2019-05-12 14:00:00 21.1 8 Sur 19 Sur 0 -- -- 25
2019-05-12 13:00:00 19.9 7 Sudoeste 17 Sudoeste 0 -- -- 25
2019-05-12 12:00:00 18.9 8 Nordeste 17 Nordeste 0 -- -- 14
2019-05-12 11:00:00 17.6 5 Norte 13 Noroeste 0 -- -- 24
2019-05-12 10:00:00 13.6 2 Norte 5 Norte 0 -- -- 51
2019-05-12 09:00:00 8.6 0 Calma 4 Sudeste 0 -- -- 61
2019-05-12 08:00:00 -1.3 0 Calma 3 Sur 0 -- -- 91
2019-05-12 07:00:00 -1.7 2 Sur 3 Sur 0 -- -- 89
2019-05-12 06:00:00 -1.9 0 Calma 3 Sudoeste 0 -- -- 89
2019-05-12 05:00:00 -0.5 3 Sur 4 Sur 0 -- -- 87
2019-05-12 04:00:00 0.8 2 Sur 5 Sudeste 0 -- -- 81
2019-05-12 03:00:00 1.6 0 Calma 4 Sur 0 -- -- 76
2019-05-12 02:00:00 3.5 2 Sur 7 Sudeste 0 -- -- 72
2019-05-12 01:00:00 5.7 4 Oeste 15 Nordeste 0 -- -- 66
2019-05-12 00:00:00 7.9 7 Nordeste 13 Nordeste 0 -- -- 57
2019-05-11 23:00:00 8.1 4 Noroeste 10 Noroeste 0 -- -- 60
2019-05-11 22:00:00 9.9 6 Sur 12 Norte 0 -- -- 55
2019-05-11 21:00:00 13.3 9 Norte 23 Norte 0 -- -- 47
2019-05-11 20:00:00 18.7 15 Norte 27 Norte 0 -- -- 32
2019-05-11 19:00:00 19.9 19 Norte 30 Norte 0 -- -- 29
2019-05-11 18:00:00 20.8 14 Norte 25 Norte 0 -- -- 30
2019-05-11 17:00:00 21 16 Norte 31 Norte 0 -- -- 32
2019-05-11 16:00:00 21.4 8 Norte 23 Norte 0 -- -- 30
2019-05-11 15:00:00 20.5 10 Norte 25 Norte 0 -- -- 38
2019-05-11 14:00:00 20.1 18 Norte 25 Norte 0 -- -- 41
2019-05-11 13:00:00 20 15 Norte 22 Norte 0 -- -- 35
2019-05-11 12:00:00 19.2 7 Nordeste 18 Norte 0 -- -- 28
2019-05-11 11:00:00 17.9 5 Este 8 Nordeste 0 -- -- 31
2019-05-11 10:00:00 15.4 0 Calma 5 Nordeste 0 -- -- 57
2019-05-11 09:00:00 9.6 0 Calma 5 Sudeste 0 -- -- 90
2019-05-11 08:00:00 1.7 0 Calma 4 Sur 0 -- -- 100
2019-05-11 07:00:00 2 2 Sur 4 Sudeste 0 -- -- 100
2019-05-11 06:00:00 2.6 2 Sur 5 Sudoeste 0 -- -- 100
2019-05-11 05:00:00 3.3 2 Sur 5 Sudeste 0 -- -- 100
2019-05-11 04:00:00 4.5 0 Calma 10 Sudoeste 0 -- -- 99
2019-05-11 03:00:00 5.1 4 Sur 10 Sudoeste 0 -- -- 100
2019-05-11 02:00:00 5.2 2 Sudoeste 7 Sudoeste 0 -- -- 97
2019-05-11 01:00:00 5.9 4 Sur 12 Sudoeste 0 -- -- 97
2019-05-11 00:00:00 6.4 5 Sur 9 Sur 0 -- -- 96
2019-05-10 23:00:00 7.7 4 Sur 12 Sur 0 -- -- 96
2019-05-10 22:00:00 10.6 8 Sur 11 Sur 0 -- -- 88
2019-05-10 21:00:00 13.4 3 Oeste 16 Noroeste 0 -- -- 82
2019-05-10 20:00:00 18.2 8 Oeste 22 Sur 0 -- -- 48
2019-05-10 19:00:00 17.2 16 Sur 30 Sur 0 -- -- 70
2019-05-10 18:00:00 16.6 18 Sur 36 Sur 0 -- -- 75
2019-05-10 17:00:00 15.3 18 Sur 33 Sur 0 -- -- 84
2019-05-10 16:00:00 14.3 18 Sur 36 Sur 0 -- -- 90
2019-05-10 15:00:00 15.4 20 Sur 36 Sudoeste 0 -- -- 84
2019-05-10 14:00:00 13 18 Sur 32 Sudoeste 0 -- -- 98
2019-05-10 13:00:00 12.4 18 Sur 31 Sur 0 -- -- 98
2019-05-10 12:00:00 11.6 19 Sur 33 Sur 0.2 -- -- 100
2019-05-10 11:00:00 11.2 17 Sur 26 Sur 0.2 -- -- 98
2019-05-10 10:00:00 11.6 14 Sur 22 Sur 0 -- -- 99
2019-05-10 09:00:00 10.1 10 Sur 19 Sur 0.2 -- -- 100
2019-05-10 08:00:00 10.1 13 Sur 23 Sudoeste 0 -- -- 100
2019-05-10 07:00:00 10.1 12 Sur 21 Sur 0 -- -- 100
2019-05-10 06:00:00 10.2 9 Sur 17 Sudeste 0 -- -- 100
2019-05-10 05:00:00 9.1 8 Sur 11 Sur 0 -- -- 100
2019-05-10 04:00:00 9.3 4 Sur 10 Sur 0 -- -- 100
2019-05-10 03:00:00 10.7 6 Sur 21 Sur 0.2 -- -- 100
2019-05-10 02:00:00 11.3 12 Sur 21 Sur 0 -- -- 100
2019-05-10 01:00:00 11.1 13 Sur 22 Sudoeste 0 -- -- 100
2019-05-10 00:00:00 11.4 9 Sur 18 Sudoeste 0 -- -- 99
2019-05-09 23:00:00 11.5 8 Sur 18 Sur 0.2 -- -- 99
2019-05-09 22:00:00 11.6 7 Sur 19 Sudoeste 0.2 -- -- 99
2019-05-09 21:00:00 11.6 13 Sur 28 Sur 0 -- -- 98
2019-05-09 20:00:00 11.5 15 Sur 31 Sur 0 -- -- 97
2019-05-09 19:00:00 11.7 16 Sur 45 Sur 0 -- -- 97
2019-05-09 18:00:00 11.7 18 Sur 32 Sur 0 -- -- 92
2019-05-09 17:00:00 13 18 Sur 37 Sudoeste 0 -- -- 83
2019-05-09 16:00:00 13 19 Sur 37 Sur 0 -- -- 78
2019-05-09 15:00:00 13.6 25 Sur 39 Sur 0 -- -- 71
2019-05-09 14:00:00 13.9 22 Sur 38 Sur 0 -- -- 67
2019-05-09 13:00:00 12.3 18 Sur 36 Sur 0 -- -- 71
2019-05-09 12:00:00 11.7 17 Sur 35 Sur 0 -- -- 69
2019-05-09 11:00:00 11.1 16 Sur 30 Sudoeste 0 -- -- 66
2019-05-09 10:00:00 10.4 11 Sur 22 Sur 0 -- -- 65
2019-05-09 09:00:00 8.2 0 Calma 8 Sudeste 0 -- -- 68
2019-05-09 08:00:00 0.7 2 Nordeste 9 Sudoeste 0 -- -- 95
2019-05-09 07:00:00 -0.2 6 Sur 10 Sur 0 -- -- 96
2019-05-09 06:00:00 1 3 Nordeste 12 Sudoeste 0 -- -- 94
2019-05-09 05:00:00 -0.5 0 Calma 7 Sudeste 0 -- -- 98
2019-05-09 04:00:00 -0.7 3 Sur 8 Sur 0 -- -- 98
2019-05-09 03:00:00 0.1 5 Sur 8 Sudoeste 0 -- -- 97
2019-05-09 02:00:00 2.4 0 Calma 14 Sudeste 0 -- -- 93
2019-05-09 01:00:00 3.4 6 Sur 11 Sur 0 -- -- 96
2019-05-09 00:00:00 4.1 8 Sur 13 Sur 0 -- -- 95
2019-05-08 23:00:00 5.1 7 Sur 13 Sudoeste 0 -- -- 92
2019-05-08 22:00:00 6.8 5 Sur 14 Sur 0 -- -- 92
2019-05-08 21:00:00 9.8 6 Sur 19 Sudoeste 0 -- -- 84
2019-05-08 20:00:00 11.9 9 Sudoeste 27 Sur 0 -- -- 81
2019-05-08 19:00:00 13.2 11 Sur 33 Sur 0 -- -- 84
2019-05-08 18:00:00 12 18 Sur 39 Sur 0 -- -- 90
2019-05-08 17:00:00 10.5 21 Sur 37 Sur 0 -- -- 98
2019-05-08 16:00:00 10.4 18 Sur 32 Sur 0 -- -- 100
2019-05-08 15:00:00 10 21 Sur 40 Sur 0 -- -- 99
2019-05-08 14:00:00 9.7 23 Sur 40 Sur 0.2 -- -- 99
2019-05-08 13:00:00 9.5 20 Sur 40 Sur 0 -- -- 100
2019-05-08 12:00:00 9.1 18 Sur 37 Sur 0.2 -- -- 100
2019-05-08 11:00:00 9.1 20 Sur 39 Sur 0.4 -- -- 100
2019-05-08 10:00:00 9.2 20 Sur 39 Sudeste 0.2 -- -- 100
2019-05-08 09:00:00 8.8 25 Sur 46 Sur 0.6 -- -- 100
2019-05-08 08:00:00 9.1 23 Sur 39 Sur 0.6 -- -- 99
2019-05-08 07:00:00 9.2 21 Sur 37 Sudoeste 1 -- -- 99
2019-05-08 06:00:00 9.2 18 Sur 39 Sudoeste 1 -- -- 99
2019-05-08 05:00:00 9.5 21 Sur 39 Sur 0.4 -- -- 99
2019-05-08 04:00:00 9.2 24 Sur 44 Sur 0.6 -- -- 99
2019-05-08 03:00:00 9.4 23 Sur 43 Sur 0.6 -- -- 97
2019-05-08 02:00:00 9.9 19 Sur 36 Sur 0 -- -- 93
2019-05-08 01:00:00 10 16 Sur 31 Sudeste 0 -- -- 93
2019-05-08 00:00:00 11 14 Sur 36 Sur 0 -- -- 89
2019-05-07 23:00:00 11.3 10 Sur 28 Sur 0 -- -- 90
2019-05-07 22:00:00 11.5 12 Sur 38 Sur 0 -- -- 87
2019-05-07 21:00:00 11.5 19 Sur 37 Sur 0 -- -- 86
2019-05-07 20:00:00 12.3 15 Sur 34 Sur 0 -- -- 83
2019-05-07 19:00:00 13.4 17 Sur 30 Sur 0 -- -- 77
2019-05-07 18:00:00 13.2 15 Sur 28 Sur 0 -- -- 82
2019-05-07 17:00:00 13.5 18 Sur 38 Sur 0 -- -- 77
2019-05-07 16:00:00 15.9 20 Sur 40 Sur 0 -- -- 68
2019-05-07 15:00:00 14.4 23 Sur 40 Sur 0 -- -- 74
2019-05-07 14:00:00 13.4 21 Sur 36 Sur 0 -- -- 76
2019-05-07 13:00:00 13.2 16 Sur 32 Sur 0 -- -- 77
2019-05-07 12:00:00 13 17 Sur 31 Sur 0 -- -- 76
2019-05-07 11:00:00 14.1 13 Sur 23 Sur 0 -- -- 68
2019-05-07 10:00:00 15.2 4 Sudeste 7 Sur 0 -- -- 55
2019-05-07 09:00:00 7.3 0 Calma 4 Nordeste 0 -- -- 85
2019-05-07 08:00:00 1.6 0 Calma 6 Sudoeste 0 -- -- 99
2019-05-07 07:00:00 0.6 0 Calma 3 Sudoeste 0 -- -- 99
2019-05-07 06:00:00 1.2 0 Calma 6 Sur 0 -- -- 97
2019-05-07 05:00:00 1.1 0 Calma 5 Sur 0 -- -- 97
2019-05-07 04:00:00 1.8 0 Calma 5 Sur 0 -- -- 93
2019-05-07 03:00:00 2.4 2 Sudoeste 9 Sur 0 -- -- 95
2019-05-07 02:00:00 3.5 0 Calma 10 Sudoeste 0 -- -- 90
2019-05-07 01:00:00 4.7 2 Sur 6 Sudoeste 0 -- -- 87
2019-05-07 00:00:00 5.8 2 Nordeste 10 Sur 0 -- -- 84
2019-05-06 23:00:00 7.3 5 Sur 9 Sudoeste 0 -- -- 80
2019-05-06 22:00:00 10.2 6 Sudoeste 12 Sur 0 -- -- 70
2019-05-06 21:00:00 13.1 10 Sur 20 Sudoeste 0 -- -- 60
2019-05-06 20:00:00 16 15 Sur 32 Sudoeste 0 -- -- 49
2019-05-06 19:00:00 16.5 18 Sur 34 Sudoeste 0 -- -- 51
2019-05-06 18:00:00 17.1 19 Sur 37 Sur 0 -- -- 55
2019-05-06 17:00:00 17.4 21 Sur 36 Sur 0 -- -- 54
2019-05-06 16:00:00 17 19 Sur 43 Sur 0 -- -- 52
2019-05-06 15:00:00 16.9 20 Sur 40 Sur 0 -- -- 52
2019-05-06 14:00:00 16.1 22 Sur 37 Sur 0 -- -- 48
2019-05-06 13:00:00 15.6 19 Sur 32 Sudoeste 0 -- -- 46
2019-05-06 12:00:00 15.7 17 Sur 30 Sur 0 -- -- 45
2019-05-06 11:00:00 15 15 Sur 24 Sur 0 -- -- 45
2019-05-06 10:00:00 13.9 11 Sur 18 Sur 0 -- -- 47
2019-05-06 09:00:00 8.5 0 Calma 4 Sudeste 0 -- -- 76
2019-05-06 08:00:00 0.3 0 Calma 4 Sudoeste 0 -- -- 97
2019-05-06 07:00:00 -0.2 0 Calma 3 Sudoeste 0 -- -- 95
2019-05-06 06:00:00 0.7 4 Sur 6 Sur 0 -- -- 94
2019-05-06 05:00:00 0.7 0 Calma 6 Sur 0 -- -- 86
2019-05-06 04:00:00 1.8 3 Sudoeste 9 Sur 0 -- -- 84
2019-05-06 03:00:00 1.5 4 Sur 6 Sur 0 -- -- 86
2019-05-06 02:00:00 2 2 Sur 4 Sur 0 -- -- 84
2019-05-06 01:00:00 3.1 3 Sur 5 Sudeste 0 -- -- 81
2019-05-06 00:00:00 5.1 4 Sur 10 Sudeste 0 -- -- 72
2019-05-05 23:00:00 6.9 6 Sudeste 13 Sudoeste 0 -- -- 64
2019-05-05 22:00:00 9.5 10 Sudoeste 13 Sudoeste 0 -- -- 57
2019-05-05 21:00:00 11.2 3 Sur 20 Norte 0 -- -- 52
2019-05-05 20:00:00 17.2 10 Norte 26 Norte 0 -- -- 34
2019-05-05 19:00:00 17.7 17 Norte 28 Norte 0 -- -- 36
2019-05-05 18:00:00 18.6 18 Norte 32 Norte 0 -- -- 30
2019-05-05 17:00:00 18.4 21 Norte 41 Norte 0 -- -- 36
2019-05-05 16:00:00 18.3 21 Norte 36 Norte 0 -- -- 37
2019-05-05 15:00:00 18.1 21 Norte 33 Norte 0 -- -- 34
2019-05-05 14:00:00 17.5 21 Norte 33 Norte 0 -- -- 39
2019-05-05 13:00:00 16.3 14 Noroeste 29 Sudoeste 0 -- -- 51
2019-05-05 12:00:00 15 11 Sudoeste 32 Sudoeste 0 -- -- 54
2019-05-05 11:00:00 15.9 8 Sudoeste 23 Sudoeste 0 -- -- 47
2019-05-05 10:00:00 14 3 Nordeste 6 Sudoeste 0 -- -- 54
2019-05-05 09:00:00 9.2 0 Calma 5 Sudeste 0 -- -- 69
2019-05-05 08:00:00 -0.1 0 Calma 4 Sudoeste 0 -- -- 97
2019-05-05 07:00:00 -0.3 0 Calma 4 Sudoeste 0 -- -- 95
2019-05-05 06:00:00 0 3 Sur 6 Sur 0 -- -- 93
2019-05-05 05:00:00 0.4 2 Sur 6 Sur 0 -- -- 92
2019-05-05 04:00:00 0.7 2 Sur 5 Oeste 0 -- -- 89
2019-05-05 03:00:00 1.5 2 Sudeste 12 Norte 0 -- -- 85
2019-05-05 02:00:00 2.6 3 Sur 8 Nordeste 0 -- -- 82
2019-05-05 01:00:00 2 0 Calma 2 Sudoeste 0 -- -- 83
2019-05-05 00:00:00 3.2 2 Sur 5 Sudoeste 0 -- -- 79
2019-05-04 23:00:00 5 3 Sur 6 Sudeste 0 -- -- 72
2019-05-04 22:00:00 8.1 4 Sudeste 8 Sudeste 0 -- -- 61
2019-05-04 21:00:00 12.2 0 Calma 20 Norte 0 -- -- 47
2019-05-04 20:00:00 15.9 16 Norte 33 Norte 0 -- -- 37
2019-05-04 19:00:00 17 17 Norte 27 Nordeste 0 -- -- 36
2019-05-04 18:00:00 17.9 13 Norte 27 Norte 0 -- -- 36
2019-05-04 17:00:00 17.7 19 Norte 30 Norte 0 -- -- 38
2019-05-04 16:00:00 17.7 11 Norte 27 Norte 0 -- -- 39
2019-05-04 15:00:00 16.8 13 Nordeste 25 Norte 0 -- -- 42
2019-05-04 14:00:00 15.9 12 Norte 27 Norte 0 -- -- 49
2019-05-04 13:00:00 15.4 13 Nordeste 26 Nordeste 0 -- -- 47
2019-05-04 12:00:00 14.6 12 Nordeste 22 Norte 0 -- -- 51
2019-05-04 11:00:00 13.3 10 Norte 17 Nordeste 0 -- -- 52
2019-05-04 10:00:00 10.6 4 Norte 8 Norte 0 -- -- 58
2019-05-04 09:00:00 4.5 0 Calma 5 Este 0 -- -- 72
2019-05-04 08:00:00 -2.8 0 Calma 6 Sur 0 -- -- 97
2019-05-04 07:00:00 -3.3 0 Calma 5 Sur 0 -- -- 97
2019-05-04 06:00:00 -3.4 0 Calma 4 Sudeste 0 -- -- 96
2019-05-04 05:00:00 -2.5 2 Sur 6 Sur 0 -- -- 95
2019-05-04 04:00:00 -2.2 0 Calma 6 Sudeste 0 -- -- 95
2019-05-04 03:00:00 -1.9 3 Sur 4 Sudeste 0 -- -- 94
2019-05-04 02:00:00 -0.5 4 Sur 8 Sudeste 0 -- -- 89
2019-05-04 01:00:00 0.8 5 Norte 10 Nordeste 0 -- -- 84
2019-05-04 00:00:00 2.5 3 Norte 12 Noroeste 0 -- -- 78
2019-05-03 23:00:00 6.5 9 Nordeste 21 Norte 0 -- -- 63
2019-05-03 22:00:00 8 17 Norte 27 Norte 0 -- -- 59
2019-05-03 21:00:00 9.4 18 Nordeste 33 Norte 0 -- -- 53
2019-05-03 20:00:00 12 20 Norte 36 Nordeste 0 -- -- 48
2019-05-03 19:00:00 13.3 24 Norte 45 Norte 0 -- -- 45
2019-05-03 18:00:00 14.2 26 Norte 39 Norte 0 -- -- 45
2019-05-03 17:00:00 15 22 Nordeste 36 Nordeste 0 -- -- 47
2019-05-03 16:00:00 14.8 22 Norte 33 Norte 0 -- -- 51
2019-05-03 15:00:00 14.5 21 Norte 40 Nordeste 0 -- -- 50
2019-05-03 14:00:00 14.3 24 Norte 42 Norte 0 -- -- 50
2019-05-03 13:00:00 14.4 28 Norte 42 Norte 0 -- -- 47
2019-05-03 12:00:00 14.7 16 Norte 30 Norte 0 -- -- 44
2019-05-03 11:00:00 14.2 18 Norte 25 Norte 0 -- -- 46
2019-05-03 10:00:00 13.6 0 Calma 5 Sudeste 0 -- -- 58
2019-05-03 09:00:00 6.2 0 Calma 4 Sudeste 0 -- -- 96
2019-05-03 08:00:00 -0.6 2 Sudoeste 5 Sudoeste 0 -- -- 99
2019-05-03 07:00:00 -0.3 0 Calma 2 Norte 0 -- -- 99
2019-05-03 06:00:00 0.3 0 Calma 5 Sudeste 0 -- -- 98
2019-05-03 05:00:00 1.1 2 Sur 4 Sudoeste 0 -- -- 99
2019-05-03 04:00:00 1.8 0 Calma 5 Este 0 -- -- 97
2019-05-03 03:00:00 2.4 0 Calma 6 Sur 0 -- -- 97
2019-05-03 02:00:00 3.5 3 Sur 6 Sudeste 0 -- -- 94
2019-05-03 01:00:00 5.1 4 Sudeste 8 Sudeste 0 -- -- 90
2019-05-03 00:00:00 6.3 6 Sudeste 10 Sudeste 0 -- -- 84
2019-05-02 23:00:00 7.6 4 Sur 10 Sudeste 0 -- -- 81
2019-05-02 22:00:00 8.9 4 Sur 9 Sudeste 0 -- -- 77
2019-05-02 21:00:00 13.2 2 Sur 18 Norte 0 -- -- 59
2019-05-02 20:00:00 17.4 14 Norte 24 Norte 0 -- -- 46
2019-05-02 19:00:00 18.7 14 Norte 26 Norte 0 -- -- 47
2019-05-02 18:00:00 18.3 7 Sur 18 Sur 0 -- -- 51
2019-05-02 17:00:00 19.5 6 Norte 19 Sur 0 -- -- 51
2019-05-02 16:00:00 17.9 9 Sur 20 Sur 0 -- -- 61
2019-05-02 15:00:00 17.4 9 Sur 23 Sur 0 -- -- 58
2019-05-02 14:00:00 19.4 14 Sur 25 Sur 0 -- -- 54
2019-05-02 13:00:00 17.7 13 Sur 24 Sudoeste 0 -- -- 58
2019-05-02 12:00:00 17 11 Sur 19 Sudoeste 0 -- -- 61
2019-05-02 11:00:00 16.5 2 Norte 7 Norte 0 -- -- 60
2019-05-02 10:00:00 12.8 0 Calma 6 Nordeste 0 -- -- 75
2019-05-02 09:00:00 5.7 2 Norte 5 Nordeste 0 -- -- 98
2019-05-02 08:00:00 2.4 3 Sur 6 Sudoeste 0 -- -- 100
2019-05-02 07:00:00 1.8 0 Calma 3 Sur 0 -- -- 100
2019-05-02 06:00:00 1.3 0 Calma 4 Sudoeste 0 -- -- 100
2019-05-02 05:00:00 1.9 0 Calma 4 Sur 0 -- -- 100
2019-05-02 04:00:00 2.6 0 Calma 12 Este 0 -- -- 100
2019-05-02 03:00:00 2.8 0 Calma 6 Sudoeste 0 -- -- 100
2019-05-02 02:00:00 3 0 Calma 4 Sudoeste 0 -- -- 100
2019-05-02 01:00:00 4 2 Sur 4 Sudeste 0 -- -- 100
2019-05-02 00:00:00 4.5 0 Calma 5 Sur 0 -- -- 98
2019-05-01 23:00:00 5.9 0 Calma 6 Nordeste 0 -- -- 98
2019-05-01 22:00:00 8.2 6 Nordeste 18 Nordeste 0 -- -- 97
2019-05-01 21:00:00 10 5 Oeste 11 Norte 0.2 -- -- 97
2019-05-01 20:00:00 9.9 5 Norte 10 Nordeste 1.8 -- -- 97
2019-05-01 19:00:00 10.7 2 Este 19 Norte 0.2 -- -- 90
2019-05-01 18:00:00 11.4 7 Norte 19 Norte 0 -- -- 88
2019-05-01 17:00:00 13.1 10 Norte 16 Norte 0 -- -- 87
2019-05-01 16:00:00 14.1 3 Norte 15 Sur 0.2 -- -- 86
2019-05-01 15:00:00 15.9 7 Sur 63 Sur 0.2 -- -- 63
2019-05-01 14:00:00 19.2 17 Sur 29 Sudoeste 0 -- -- 42
2019-05-01 13:00:00 18.9 15 Sur 29 Sur 0 -- -- 42
2019-05-01 12:00:00 18.7 14 Sur 24 Sur 0 -- -- 44
2019-05-01 11:00:00 18.6 10 Sur 19 Sur 0 -- -- 47
2019-05-01 10:00:00 12.1 3 Sur 5 Sur 0 -- -- 73
2019-05-01 09:00:00 9.6 0 Calma 4 Sudoeste 0 -- -- 82
2019-05-01 08:00:00 2.5 0 Calma 6 Sur 0 -- -- 97
2019-05-01 07:00:00 3 0 Calma 7 Sudeste 0 -- -- 97
2019-05-01 06:00:00 2.4 0 Calma 4 Sur 0 -- -- 97
2019-05-01 05:00:00 2.7 0 Calma 4 Sudoeste 0 -- -- 97
2019-05-01 04:00:00 3.4 0 Calma 4 Sudoeste 0 -- -- 95
2019-05-01 03:00:00 3.6 0 Calma 3 Sudoeste 0 -- -- 91
2019-05-01 02:00:00 4.7 0 Calma 4 Sur 0 -- -- 89
2019-05-01 01:00:00 5.9 2 Sur 6 Sudeste 0 -- -- 84
2019-05-01 00:00:00 7.8 4 Sudeste 8 Sur 0 -- -- 79
2019-04-30 23:00:00 8.8 5 Sur 9 Sudoeste 0 -- -- 76
2019-04-30 22:00:00 10.7 4 Sur 9 Sur 0 -- -- 70
2019-04-30 21:00:00 16.1 0 Calma 16 Sudoeste 0 -- -- 58
2019-04-30 20:00:00 19 6 Sur 20 Sur 0 -- -- 50
2019-04-30 19:00:00 19 10 Sudoeste 24 Sur 0 -- -- 51
2019-04-30 18:00:00 20.4 8 Sur 22 Sudoeste 0 -- -- 42
2019-04-30 17:00:00 20.7 14 Sudoeste 26 Sudoeste 0 -- -- 43
2019-04-30 16:00:00 20.2 12 Sur 25 Sur 0 -- -- 41
2019-04-30 15:00:00 20.3 15 Sur 31 Sudoeste 0 -- -- 42
2019-04-30 14:00:00 20.2 14 Sur 32 Sur 0 -- -- 45
2019-04-30 13:00:00 19.3 15 Sur 27 Sudeste 0 -- -- 46
2019-04-30 12:00:00 19.1 14 Sur 24 Sur 0 -- -- 43
2019-04-30 11:00:00 18.9 3 Norte 7 Nordeste 0 -- -- 42
2019-04-30 10:00:00 15.6 0 Calma 3 Sudoeste 0 -- -- 55
2019-04-30 09:00:00 7.8 0 Calma 3 Sudeste 0 -- -- 89
2019-04-30 08:00:00 1.5 0 Calma 5 Sur 0 -- -- 99
2019-04-30 07:00:00 1.6 0 Calma 5 Nordeste 0 -- -- 100
2019-04-30 06:00:00 1.7 0 Calma -- -- 0 -- -- 98
2019-04-30 05:00:00 2.1 0 Calma -- -- 0 -- -- 98
2019-04-30 04:00:00 2.4 0 Calma 3 Sudoeste 0 -- -- 97
2019-04-30 03:00:00 3.7 2 Sur 4 Sudoeste 0 -- -- 95
2019-04-30 02:00:00 4.4 0 Calma 4 Sur 0 -- -- 91
2019-04-30 01:00:00 5.6 2 Sudeste 5 Sudeste 0 -- -- 88
2019-04-30 00:00:00 6.8 0 Calma 8 Sudeste 0 -- -- 84
2019-04-29 23:00:00 8.8 5 Sudeste 10 Sudeste 0 -- -- 77
2019-04-29 22:00:00 9.5 4 Sudeste 9 Sudoeste 0 -- -- 73
2019-04-29 21:00:00 13.3 6 Sur 10 Sudoeste 0 -- -- 67
2019-04-29 20:00:00 15.7 5 Sudoeste 26 Sur 0 -- -- 57
2019-04-29 19:00:00 18.7 14 Sur 27 Sudoeste 0 -- -- 45
2019-04-29 18:00:00 18.4 14 Sur 28 Sudoeste 0 -- -- 47
2019-04-29 17:00:00 20 15 Sur 34 Sudeste 0 -- -- 46
2019-04-29 16:00:00 20.1 14 Sur 30 Sudoeste 0 -- -- 46
2019-04-29 15:00:00 19.5 16 Sur 31 Sudoeste 0 -- -- 47
2019-04-29 14:00:00 18.4 18 Sur 31 Sur 0 -- -- 48
2019-04-29 13:00:00 18.2 15 Sur 29 Sur 0 -- -- 52
2019-04-29 12:00:00 18.1 14 Sur 24 Sudoeste 0 -- -- 48
2019-04-29 11:00:00 18.2 5 Nordeste 8 Nordeste 0 -- -- 42
2019-04-29 10:00:00 15.1 0 Calma 4 Sudeste 0 -- -- 57
2019-04-29 09:00:00 7.8 0 Calma 4 Sur 0 -- -- 94
2019-04-29 08:00:00 2.2 0 Calma 3 Sudoeste 0 -- -- 99
2019-04-29 07:00:00 1.4 0 Calma 5 Sur 0 -- -- 99
2019-04-29 06:00:00 1.4 3 Sur 4 Sudoeste 0 -- -- 98
2019-04-29 05:00:00 2.1 3 Sur 4 Sudoeste 0 -- -- 98
2019-04-29 04:00:00 2.6 0 Calma 4 Sur 0 -- -- 97
2019-04-29 03:00:00 3.4 0 Calma 5 Sudoeste 0 -- -- 95
2019-04-29 02:00:00 4.1 0 Calma 4 Sudeste 0 -- -- 91
2019-04-29 01:00:00 5.4 3 Sur 6 Sudeste 0 -- -- 89
2019-04-29 00:00:00 6 3 Sur 8 Sudeste 0 -- -- 86
2019-04-28 23:00:00 7.1 5 Sur 9 Sur 0 -- -- 80
2019-04-28 22:00:00 10.1 7 Sur 10 Sudeste 0 -- -- 78
2019-04-28 21:00:00 13.8 3 Sur 17 Sudoeste 0 -- -- 69
2019-04-28 20:00:00 16.8 10 Sur 27 Sudoeste 0 -- -- 57
2019-04-28 19:00:00 19 14 Sur 28 Sur 0 -- -- 50
2019-04-28 18:00:00 19.1 17 Sur 27 Sur 0 -- -- 49
2019-04-28 17:00:00 19.6 14 Sudoeste 29 Sudoeste 0 -- -- 49
2019-04-28 16:00:00 18.7 16 Sur 29 Sudoeste 0 -- -- 49
2019-04-28 15:00:00 18.6 14 Sur 24 Sur 0 -- -- 51
2019-04-28 14:00:00 17.8 12 Sudoeste 23 Sur 0 -- -- 52
2019-04-28 13:00:00 17.5 12 Sur 19 Sudoeste 0 -- -- 51
2019-04-28 12:00:00 17.5 4 Norte 12 Oeste 0 -- -- 48
2019-04-28 11:00:00 15 3 Nordeste 6 Norte 0 -- -- 58
2019-04-28 10:00:00 11.4 0 Calma 3 Nordeste 0 -- -- 71
2019-04-28 09:00:00 4.5 0 Calma 3 Sur 0 -- -- 100
2019-04-28 08:00:00 -1.1 0 Calma 7 Sudoeste 0 -- -- 100
2019-04-28 07:00:00 -1 0 Calma 6 Sudeste 0 -- -- 99
2019-04-28 06:00:00 -1 4 Sur 6 Sudoeste 0 -- -- 100
2019-04-28 05:00:00 0.1 3 Sur 5 Sudeste 0 -- -- 100
2019-04-28 04:00:00 1 3 Sur 5 Sudoeste 0 -- -- 100
2019-04-28 03:00:00 1.6 0 Calma 4 Sudoeste 0 -- -- 99
2019-04-28 02:00:00 2.4 0 Calma 4 Sudeste 0 -- -- 97
2019-04-28 01:00:00 3.3 0 Calma 6 Sudeste 0 -- -- 93
2019-04-28 00:00:00 5 4 Sur 9 Sudeste 0 -- -- 91
2019-04-27 23:00:00 5.3 5 Sur 9 Sur 0 -- -- 90
2019-04-27 22:00:00 8.2 5 Sudeste 9 Sur 0 -- -- 81
2019-04-27 21:00:00 12.1 4 Norte 17 Norte 0 -- -- 65
2019-04-27 20:00:00 15.2 10 Sudoeste 23 Sudoeste 0 -- -- 63
2019-04-27 19:00:00 14.7 10 Sur 22 Sur 0 -- -- 63
2019-04-27 18:00:00 16.1 13 Sur 28 Sudoeste 0 -- -- 56
2019-04-27 17:00:00 16.1 17 Sur 32 Sudoeste 0 -- -- 55
2019-04-27 16:00:00 15.9 17 Sur 30 Sur 0 -- -- 56
2019-04-27 15:00:00 15.2 16 Sudoeste 30 Sudoeste 0 -- -- 57
2019-04-27 14:00:00 14 18 Sur 31 Sur 0 -- -- 58
2019-04-27 13:00:00 13.6 15 Sur 28 Sudoeste 0 -- -- 58
2019-04-27 12:00:00 12.8 13 Sudoeste 24 Sudoeste 0 -- -- 57
2019-04-27 11:00:00 12.6 10 Sudoeste 14 Sudoeste 0 -- -- 55
2019-04-27 10:00:00 10.3 0 Calma 2 Norte 0 -- -- 69
2019-04-27 09:00:00 2.7 0 Calma 3 Sudoeste 0 -- -- 100
2019-04-27 08:00:00 -2.5 2 Sudoeste 4 Sudoeste 0 -- -- 99
2019-04-27 07:00:00 -2.6 0 Calma 3 Sur 0 -- -- 100
2019-04-27 06:00:00 -2.6 0 Calma 4 Sur 0 -- -- 99
2019-04-27 05:00:00 -2.4 0 Calma 3 Sudeste 0 -- -- 98
2019-04-27 04:00:00 -1.8 2 Sur 4 Sur 0 -- -- 99
2019-04-27 03:00:00 -1.3 3 Sur 8 Sur 0 -- -- 97
2019-04-27 02:00:00 -0.4 3 Sur 7 Sudoeste 0 -- -- 98
2019-04-27 01:00:00 -0.2 4 Sur 6 Sur 0 -- -- 98
2019-04-27 00:00:00 0.6 2 Sur 6 Sudeste 0 -- -- 96
2019-04-26 23:00:00 1.5 3 Sur 9 Sur 0 -- -- 93
2019-04-26 22:00:00 2.8 6 Sur 10 Sur 0 -- -- 89
2019-04-26 21:00:00 6.1 4 Sur 14 Sur 0 -- -- 78
2019-04-26 20:00:00 10.5 9 Sudoeste 21 Sudoeste 0 -- -- 64
2019-04-26 19:00:00 11.6 12 Sudoeste 22 Sudoeste 0 -- -- 61
2019-04-26 18:00:00 12.3 14 Sur 24 Sudoeste 0 -- -- 57
2019-04-26 17:00:00 11.8 14 Sur 26 Sudoeste 0 -- -- 63
2019-04-26 16:00:00 11.8 15 Norte 24 Norte 0 -- -- 42
2019-04-26 15:00:00 11.1 7 Norte 28 Norte 0 -- -- 45
2019-04-26 14:00:00 10.4 9 Norte 26 Norte 0 -- -- 49
2019-04-26 13:00:00 9.7 12 Norte 23 Norte 0 -- -- 57
2019-04-26 12:00:00 8.9 11 Norte 24 Norte 0 -- -- 60
2019-04-26 11:00:00 5.5 5 Sudeste 22 Norte 0 -- -- 68
2019-04-26 10:00:00 6.9 6 Este 17 Norte 0 -- -- 59
2019-04-26 09:00:00 4.8 9 Nordeste 24 Nordeste 0 -- -- 71
2019-04-26 08:00:00 2.2 6 Norte 32 Norte 0 -- -- 83
2019-04-26 07:00:00 2.3 11 Norte 24 Norte 0 -- -- 85
2019-04-26 06:00:00 2.7 12 Norte 25 Norte 0 -- -- 87
2019-04-26 05:00:00 3.2 8 Oeste 28 Norte 0 -- -- 80
2019-04-26 04:00:00 3.1 9 Norte 23 Norte 0 -- -- 85
2019-04-26 03:00:00 3.9 6 Nordeste 24 Norte 0 -- -- 80
2019-04-26 02:00:00 3.9 7 Este 25 Nordeste 0 -- -- 77
2019-04-26 01:00:00 3.9 6 Este 31 Sur 0 -- -- 77
2019-04-26 00:00:00 3.5 17 Sudeste 32 Sur 0 -- -- 80
2019-04-25 23:00:00 3.3 14 Sur 28 Sur 0 -- -- 82
2019-04-25 22:00:00 2.2 6 Sur 21 Sur 0 -- -- 87
2019-04-25 21:00:00 3.7 6 Sur 13 Noroeste 0 -- -- 77
2019-04-25 20:00:00 5.8 5 Noroeste 24 Sur 0 -- -- 74
2019-04-25 19:00:00 5.9 14 Sur 28 Sur 0 -- -- 86
2019-04-25 18:00:00 6.1 11 Sudoeste 27 Oeste 1 -- -- 87
2019-04-25 17:00:00 3.7 10 Oeste 31 Sur 0.2 -- -- 85
2019-04-25 16:00:00 4.6 10 Sudoeste 36 Sur 0.4 -- -- 93
2019-04-25 15:00:00 4.7 19 Sur 37 Sudeste 0.4 -- -- 93
2019-04-25 14:00:00 4 21 Sur 35 Sudoeste 0.2 -- -- 100
2019-04-25 13:00:00 2.5 15 Sudoeste 45 Sur 0.2 -- -- 99
2019-04-25 12:00:00 2.6 15 Sudoeste 33 Sudoeste 1 -- -- 100
2019-04-25 11:00:00 2.2 13 Sudoeste 31 Sur 0.8 -- -- 100
2019-04-25 10:00:00 1.9 12 Sudoeste 23 Sudoeste 0.4 -- -- 100
2019-04-25 09:00:00 1.8 11 Sur 27 Sur 0.2 -- -- 100
2019-04-25 08:00:00 1.7 13 Sur 29 Sudoeste 0.4 -- -- 98
2019-04-25 07:00:00 1.8 15 Sur 35 Sudoeste 0 -- -- 93
2019-04-25 06:00:00 2.3 15 Sudoeste 44 Sudoeste 0 -- -- 95
2019-04-25 05:00:00 2.4 16 Sudoeste 40 Sudoeste 0 -- -- 91
2019-04-25 04:00:00 2.5 13 Sudoeste 31 Sur 0 -- -- 98
2019-04-25 03:00:00 2.6 9 Sudoeste 45 Sudeste 0.2 -- -- 95
2019-04-25 02:00:00 3.8 19 Sur 45 Sudoeste 0 -- -- 98
2019-04-25 01:00:00 5.3 18 Sudoeste 54 Sudoeste 1.8 -- -- 97
2019-04-25 00:00:00 5.7 24 Sudoeste 57 Sudoeste 8.2 -- -- 98
2019-04-24 23:00:00 5.7 22 Sur 49 Sudoeste 8.6 -- -- 99
2019-04-24 22:00:00 5.1 21 Sudoeste 55 Sudoeste 4.4 -- -- 97
2019-04-24 21:00:00 5.3 19 Sudoeste 48 Sur 2.4 -- -- 98
2019-04-24 20:00:00 5.1 18 Sudoeste 54 Sudoeste 0.6 -- -- 93
2019-04-24 19:00:00 6.9 23 Sudoeste 57 Sudoeste 2.2 -- -- 87
2019-04-24 18:00:00 6.2 21 Sudoeste 62 Sudoeste 3.4 -- -- 100
2019-04-24 17:00:00 5.6 21 Sudoeste 48 Sudoeste 4.8 -- -- 100
2019-04-24 16:00:00 4.2 14 Sudoeste 27 Sudoeste 1.6 -- -- 100
2019-04-24 15:00:00 4.1 16 Sur 47 Sudoeste 2.4 -- -- 99
2019-04-24 14:00:00 3.2 16 Sudoeste 37 Sudoeste 3.4 -- -- 99
2019-04-24 13:00:00 2.1 19 Sudoeste 43 Sudoeste 2.4 -- -- 100
2019-04-24 12:00:00 0.7 21 Sur 45 Sur 7.6 -- -- 99
2019-04-24 11:00:00 -0.2 17 Sur 36 Sur 3.4 -- -- 100
2019-04-24 10:00:00 -0.7 19 Sur 47 Sur 3.2 -- -- 100
2019-04-24 09:00:00 -0.7 28 Sur 54 Sur 4.4 -- -- 100
2019-04-24 08:00:00 -0.8 29 Sur 56 Sur 3.6 -- -- 100
2019-04-24 07:00:00 -0.6 24 Sur 47 Sur 1.6 -- -- 100
2019-04-24 06:00:00 -0.2 26 Sur 51 Sur 1.4 -- -- 100
2019-04-24 05:00:00 -0.1 21 Sur 38 Sudeste 1 -- -- 100
2019-04-24 04:00:00 0 15 Sur 29 Sudeste 0.4 -- -- 100
2019-04-24 03:00:00 0 14 Sur 27 Sur 0.4 -- -- 99
2019-04-24 02:00:00 0.2 11 Sur 26 Sur 0 -- -- 99
2019-04-24 01:00:00 0.6 9 Sudoeste 24 Sudoeste 0 -- -- 98
2019-04-24 00:00:00 0.9 10 Sur 23 Sur 0 -- -- 97
2019-04-23 23:00:00 1.3 7 Sur 21 Oeste 0.4 -- -- 98
2019-04-23 22:00:00 0.5 3 Sur 8 Noroeste 1 -- -- 96
2019-04-23 21:00:00 1.8 2 Oeste 22 Norte 0 -- -- 94
2019-04-23 20:00:00 2.7 5 Sur 15 Sur 0 -- -- 94
2019-04-23 19:00:00 2.1 6 Sudeste 26 Sur 0.4 -- -- 95
2019-04-23 18:00:00 2.9 6 Sur 24 Sur 0.4 -- -- 96
2019-04-23 17:00:00 1.5 21 Sur 39 Sur 0.6 -- -- 95
2019-04-23 16:00:00 3.7 22 Sur 44 Sur 0.4 -- -- 90
2019-04-23 15:00:00 3.4 19 Sur 39 Sur 0 -- -- 85
2019-04-23 14:00:00 4.2 13 Sur 36 Sur 0 -- -- 88
2019-04-23 13:00:00 2.7 14 Sur 29 Sur 0 -- -- 90
2019-04-23 12:00:00 2.3 14 Sur 24 Sur 0 -- -- 96
2019-04-23 11:00:00 1.7 11 Sudoeste 43 Sur 0 -- -- 99
2019-04-23 10:00:00 2 13 Sur 27 Sudoeste 0.2 -- -- 99
2019-04-23 09:00:00 2.6 13 Sur 30 Sudoeste 0 -- -- 99
2019-04-23 08:00:00 2.9 15 Sur 40 Sudeste 0.4 -- -- 98
2019-04-23 07:00:00 4.1 13 Sudoeste 51 Sur 4.4 -- -- 98
2019-04-23 06:00:00 4.6 16 Sudoeste 42 Sudoeste 2.6 -- -- 97
2019-04-23 05:00:00 5 20 Sur 41 Sudoeste 0.2 -- -- 95
2019-04-23 04:00:00 5.6 17 Sudoeste 44 Sudoeste 0.4 -- -- 95
2019-04-23 03:00:00 6.2 19 Sur 53 Sur 0.6 -- -- 92
2019-04-23 02:00:00 7 19 Sur 44 Sur 0.2 -- -- 92
2019-04-23 01:00:00 7.6 9 Sudoeste 27 Sudoeste 0 -- -- 88
2019-04-23 00:00:00 8 9 Sudoeste 22 Sudoeste 0 -- -- 86